Time;durP1;ratioP1;P1;durP2;ratioP2;P2;SDS_P1;SDS_P2;PMS_P1;PMS_P2;Temp;Humidity;BMP_temperature;BMP_pressure;BME280_temperature;BME280_humidity;BME280_pressure;Samples;Min_cycle;Max_cycle;Signal;HPM_P1;HPM_P2
2023/05/26 00:01:02;;;;;;;;;5.00;3.00;;;;;;;;5055469;28;45448;-81
2023/05/26 00:03:27;;;;;;;;;4.00;3.00;;;;;;;;5055404;28;45385;-81
2023/05/26 00:05:53;;;;;;;;;4.00;2.33;;;;;;;;5055255;28;45333;-81
2023/05/26 00:08:19;;;;;;;;;6.00;3.00;;;;;;;;5054723;28;45639;-81
2023/05/26 00:10:44;;;;;;;;;3.50;3.50;;;;;;;;5053683;28;45376;-81
2023/05/26 00:13:09;;;;;;;;;4.67;3.00;;;;;;;;5054179;28;45283;-81
2023/05/26 00:15:35;;;;;;;;;3.00;3.00;;;;;;;;5055220;28;45325;-81
2023/05/26 00:18:01;;;;;;;;;5.00;3.67;;;;;;;;5054660;28;46510;-81
2023/05/26 00:20:27;;;;;;;;;5.00;3.25;;;;;;;;5054977;28;45420;-81
2023/05/26 00:22:52;;;;;;;;;3.25;3.25;;;;;;;;5055230;28;45344;-81
2023/05/26 00:25:17;;;;;;;;;5.00;3.33;;;;;;;;5054949;28;45369;-81
2023/05/26 00:27:42;;;;;;;;;4.33;4.33;;;;;;;;5054184;28;45464;-81
2023/05/26 00:30:08;;;;;;;;;5.33;4.00;;;;;;;;5054621;28;45217;-81
2023/05/26 00:32:33;;;;;;;;;5.25;3.75;;;;;;;;5055692;28;45377;-81
2023/05/26 00:34:58;;;;;;;;;5.00;4.00;;;;;;;;5058839;28;45463;-81
2023/05/26 00:37:23;;;;;;;;;4.00;4.00;;;;;;;;5058690;28;46629;-81
2023/05/26 00:39:48;;;;;;;;;6.67;4.33;;;;;;;;5058286;28;45238;-82
2023/05/26 00:42:14;;;;;;;;;5.33;4.67;;;;;;;;5058393;28;45293;-81
2023/05/26 00:44:39;;;;;;;;;5.00;4.67;;;;;;;;5058176;28;45288;-81
2023/05/26 00:47:04;;;;;;;;;4.67;4.33;;;;;;;;5057964;28;47347;-82
2023/05/26 00:49:30;;;;;;;;;6.50;4.50;;;;;;;;5058430;28;45600;-81
2023/05/26 00:51:55;;;;;;;;;5.00;4.00;;;;;;;;5058151;28;45281;-81
2023/05/26 00:54:21;;;;;;;;;5.75;3.50;;;;;;;;5058435;28;45361;-81
2023/05/26 00:56:47;;;;;;;;;6.33;5.00;;;;;;;;5057669;28;45380;-81
2023/05/26 00:59:13;;;;;;;;;5.75;4.75;;;;;;;;5057968;28;45511;-82
2023/05/26 01:01:39;;;;;;;;;5.00;5.00;;;;;;;;5058062;28;45442;-81
2023/05/26 01:04:04;;;;;;;;;4.00;3.00;;;;;;;;5058129;28;45682;-81
2023/05/26 01:06:29;;;;;;;;;7.33;5.00;;;;;;;;5057625;28;46493;-81
2023/05/26 01:08:55;;;;;;;;;5.00;3.00;;;;;;;;5057468;28;45387;-80
2023/05/26 01:11:40;;;;;;;;;7.50;4.00;;;;;;;;5057274;28;45360;-81
2023/05/26 01:14:10;;;;;;;;;8.00;4.00;;;;;;;;5057779;28;45427;-81
2023/05/26 01:16:39;;;;;;;;;7.00;5.00;;;;;;;;5057278;28;46253;-81
2023/05/26 01:19:24;;;;;;;;;9.00;4.75;;;;;;;;5057609;28;45366;-82
2023/05/26 01:21:54;;;;;;;;;7.25;4.00;;;;;;;;5057040;28;45337;-81
2023/05/26 01:24:33;;;;;;;;;6.50;6.00;;;;;;;;5057510;28;45267;-81
2023/05/26 01:27:17;;;;;;;;;6.50;3.75;;;;;;;;5057331;28;46864;-81
2023/05/26 01:29:42;;;;;;;;;4.50;3.75;;;;;;;;5057405;28;45839;-81
2023/05/26 01:32:09;;;;;;;;;10.50;4.50;;;;;;;;5039166;28;45331;-81
2023/05/26 01:34:34;;;;;;;;;7.00;4.50;;;;;;;;5057582;28;45546;-81
2023/05/26 01:36:59;;;;;;;;;5.00;4.50;;;;;;;;5057207;28;46156;-81
2023/05/26 01:39:25;;;;;;;;;4.00;4.00;;;;;;;;5056986;28;45255;-81
2023/05/26 01:41:53;;;;;;;;;5.50;5.00;;;;;;;;5057041;28;45515;-81
2023/05/26 01:44:37;;;;;;;;;7.75;5.00;;;;;;;;5056772;28;45379;-81
2023/05/26 01:47:03;;;;;;;;;6.00;4.50;;;;;;;;5057006;28;46126;-81
2023/05/26 01:49:28;;;;;;;;;6.75;4.75;;;;;;;;5057097;28;45417;-81
2023/05/26 01:51:56;;;;;;;;;11.00;4.00;;;;;;;;5057311;28;45336;-82
2023/05/26 01:54:22;;;;;;;;;6.75;3.75;;;;;;;;5057033;28;45262;-82
2023/05/26 01:56:48;;;;;;;;;8.75;4.50;;;;;;;;5038804;28;46972;-82
2023/05/26 01:59:16;;;;;;;;;5.00;3.25;;;;;;;;5057159;28;45357;-82
2023/05/26 02:01:42;;;;;;;;;5.50;3.00;;;;;;;;5057015;28;45386;-81
2023/05/26 02:04:09;;;;;;;;;6.25;4.75;;;;;;;;5057181;28;45424;-81
2023/05/26 02:06:35;;;;;;;;;3.75;3.75;;;;;;;;5056698;28;46222;-82
2023/05/26 02:09:00;;;;;;;;;6.00;4.50;;;;;;;;5056439;28;45398;-81
2023/05/26 02:11:25;;;;;;;;;7.00;4.33;;;;;;;;5056877;28;45324;-81
2023/05/26 02:13:51;;;;;;;;;6.33;5.00;;;;;;;;5056857;28;45372;-81
2023/05/26 02:16:17;;;;;;;;;7.00;4.00;;;;;;;;5056702;28;46723;-81
2023/05/26 02:18:45;;;;;;;;;5.50;3.00;;;;;;;;5056759;28;45337;-81
2023/05/26 02:21:10;;;;;;;;;3.75;3.25;;;;;;;;5056868;28;45347;-82
2023/05/26 02:23:36;;;;;;;;;4.67;4.67;;;;;;;;5056652;28;45308;-81
2023/05/26 02:26:01;;;;;;;;;6.00;4.00;;;;;;;;5056624;28;45546;-81
2023/05/26 02:28:26;;;;;;;;;4.50;2.00;;;;;;;;5056500;28;45477;-82
2023/05/26 02:30:51;;;;;;;;;3.33;3.00;;;;;;;;5057213;28;45278;-82
2023/05/26 02:33:17;;;;;;;;;4.33;3.67;;;;;;;;5057024;28;45375;-81
2023/05/26 02:35:42;;;;;;;;;4.67;3.00;;;;;;;;5056603;28;45340;-81
2023/05/26 02:38:07;;;;;;;;;3.67;2.00;;;;;;;;5056373;28;45250;-81
2023/05/26 02:40:32;;;;;;;;;4.00;3.00;;;;;;;;5056743;28;45470;-81
2023/05/26 02:42:57;;;;;;;;;6.67;3.00;;;;;;;;5056688;28;45296;-81
2023/05/26 02:45:23;;;;;;;;;6.33;3.67;;;;;;;;5056487;28;45591;-81
2023/05/26 02:47:48;;;;;;;;;5.00;1.67;;;;;;;;5056071;28;45348;-81
2023/05/26 02:50:13;;;;;;;;;5.67;5.67;;;;;;;;5056664;28;45304;-82
2023/05/26 02:52:38;;;;;;;;;4.33;3.00;;;;;;;;5056010;28;45532;-81
2023/05/26 02:55:04;;;;;;;;;4.33;2.00;;;;;;;;5055952;28;47515;-81
2023/05/26 02:57:29;;;;;;;;;2.00;1.75;;;;;;;;5055648;28;45369;-81
2023/05/26 02:59:54;;;;;;;;;2.33;2.00;;;;;;;;5056257;28;45608;-82
2023/05/26 03:02:20;;;;;;;;;2.67;2.00;;;;;;;;5056143;28;45433;-81
2023/05/26 03:04:45;;;;;;;;;5.75;3.50;;;;;;;;5056121;28;46296;-81
2023/05/26 03:07:11;;;;;;;;;3.00;2.00;;;;;;;;5055655;28;45277;-81
2023/05/26 03:09:37;;;;;;;;;4.00;2.33;;;;;;;;5056145;28;45278;-81
2023/05/26 03:12:02;;;;;;;;;4.00;3.00;;;;;;;;5056010;28;45510;-82
2023/05/26 03:14:27;;;;;;;;;8.00;3.00;;;;;;;;5056002;28;46729;-81
2023/05/26 03:16:53;;;;;;;;;2.67;2.67;;;;;;;;5055933;28;45720;-81
2023/05/26 03:19:18;;;;;;;;;5.00;2.00;;;;;;;;5055983;28;45461;-81
2023/05/26 03:21:44;;;;;;;;;1.75;1.75;;;;;;;;5055372;28;45558;-81
2023/05/26 03:24:09;;;;;;;;;10.75;4.00;;;;;;;;5055476;28;46228;-81
2023/05/26 03:26:34;;;;;;;;;3.00;2.00;;;;;;;;5055541;28;45546;-81
2023/05/26 03:28:59;;;;;;;;;5.67;2.33;;;;;;;;5054417;28;45382;-81
2023/05/26 03:31:26;;;;;;;;;5.00;4.00;;;;;;;;5055260;28;45491;-81
2023/05/26 03:33:51;;;;;;;;;11.25;4.00;;;;;;;;5055304;28;45706;-81
2023/05/26 03:36:17;;;;;;;;;5.33;3.00;;;;;;;;5055147;28;45366;-81
2023/05/26 03:38:43;;;;;;;;;3.25;3.00;;;;;;;;5055508;28;45329;-81
2023/05/26 03:41:08;;;;;;;;;2.00;2.00;;;;;;;;5055542;28;45346;-81
2023/05/26 03:43:33;;;;;;;;;4.33;2.00;;;;;;;;5055182;28;45609;-81
2023/05/26 03:46:00;;;;;;;;;5.67;4.33;;;;;;;;5055179;28;45364;-82
2023/05/26 03:48:25;;;;;;;;;5.75;4.00;;;;;;;;5055482;28;45343;-80
2023/05/26 03:50:50;;;;;;;;;4.67;3.00;;;;;;;;5055265;28;45430;-81
2023/05/26 03:53:16;;;;;;;;;2.67;2.00;;;;;;;;5055202;28;46925;-81
2023/05/26 03:55:41;;;;;;;;;8.75;2.75;;;;;;;;5055117;28;45391;-80
2023/05/26 03:58:06;;;;;;;;;9.00;4.00;;;;;;;;5055335;28;45439;-81
2023/05/26 04:00:32;;;;;;;;;5.33;4.00;;;;;;;;5055236;28;45500;-81
2023/05/26 04:02:58;;;;;;;;;3.75;2.00;;;;;;;;5087976;27;47092;-81
2023/05/26 04:05:23;;;;;;;;;3.75;2.25;;;;;;;;5054808;28;45419;-81
2023/05/26 04:07:49;;;;;;;;;5.67;2.67;;;;;;;;5055281;28;45405;-81
2023/05/26 04:10:14;;;;;;;;;7.25;3.00;;;;;;;;5058458;28;45569;-81
2023/05/26 04:12:39;;;;;;;;;4.33;2.00;;;;;;;;5058445;28;45305;-81
2023/05/26 04:15:05;;;;;;;;;3.50;2.75;;;;;;;;5058745;28;45305;-81
2023/05/26 04:17:30;;;;;;;;;3.00;3.00;;;;;;;;5058587;28;45306;-81
2023/05/26 04:19:55;;;;;;;;;2.00;2.00;;;;;;;;5057814;28;45440;-81
2023/05/26 04:22:21;;;;;;;;;4.00;2.00;;;;;;;;5058845;28;46298;-80
2023/05/26 04:24:46;;;;;;;;;3.00;2.00;;;;;;;;5058594;28;45325;-80
2023/05/26 04:27:11;;;;;;;;;8.00;4.00;;;;;;;;5058937;28;45387;-81
2023/05/26 04:29:36;;;;;;;;;4.67;3.00;;;;;;;;5059029;28;45282;-80
2023/05/26 04:32:02;;;;;;;;;7.33;3.00;;;;;;;;5058669;28;45397;-81
2023/05/26 04:34:28;;;;;;;;;4.50;1.25;;;;;;;;5058423;28;45344;-81
2023/05/26 04:36:53;;;;;;;;;5.00;2.75;;;;;;;;5058495;28;45325;-81
2023/05/26 04:39:18;;;;;;;;;3.00;3.00;;;;;;;;5058665;28;45242;-81
2023/05/26 04:41:44;;;;;;;;;2.25;2.25;;;;;;;;5058142;28;46320;-81
2023/05/26 04:44:11;;;;;;;;;7.00;2.50;;;;;;;;5058362;28;45422;-80
2023/05/26 04:46:37;;;;;;;;;6.50;3.50;;;;;;;;5058177;28;45430;-81
2023/05/26 04:49:03;;;;;;;;;2.25;1.00;;;;;;;;5057681;28;45459;-81
2023/05/26 04:51:29;;;;;;;;;5.25;3.25;;;;;;;;5058247;28;47072;-81
2023/05/26 04:53:54;;;;;;;;;3.33;3.33;;;;;;;;5058022;28;45520;-81
2023/05/26 04:56:19;;;;;;;;;8.00;2.00;;;;;;;;5058142;28;45332;-81
2023/05/26 04:58:45;;;;;;;;;9.75;2.00;;;;;;;;5058261;28;45373;-81
2023/05/26 05:01:10;;;;;;;;;3.00;2.00;;;;;;;;5057857;28;45518;-81
2023/05/26 05:03:36;;;;;;;;;9.67;4.00;;;;;;;;5057487;28;45452;-81
2023/05/26 05:06:01;;;;;;;;;8.00;3.00;;;;;;;;5057886;28;45377;-81
2023/05/26 05:08:26;;;;;;;;;4.00;2.00;;;;;;;;5057953;28;45375;-81
2023/05/26 05:10:52;;;;;;;;;4.67;3.00;;;;;;;;5057645;28;46146;-81
2023/05/26 05:13:17;;;;;;;;;3.00;3.00;;;;;;;;5057618;28;45420;-81
2023/05/26 05:15:42;;;;;;;;;4.50;2.75;;;;;;;;5057738;28;45435;-81
2023/05/26 05:18:07;;;;;;;;;4.25;3.00;;;;;;;;5057242;28;45310;-80
2023/05/26 05:20:33;;;;;;;;;4.00;3.00;;;;;;;;5057614;28;46458;-81
2023/05/26 05:22:58;;;;;;;;;8.67;3.00;;;;;;;;5057636;28;45413;-81
2023/05/26 05:25:23;;;;;;;;;4.00;3.00;;;;;;;;5057825;28;45404;-80
2023/05/26 05:27:49;;;;;;;;;6.67;2.00;;;;;;;;5057529;28;45412;-81
2023/05/26 05:30:15;;;;;;;;;2.75;1.25;;;;;;;;5057402;28;46085;-81
2023/05/26 05:32:40;;;;;;;;;4.75;2.00;;;;;;;;5057250;28;45433;-80
2023/05/26 05:35:06;;;;;;;;;4.33;4.00;;;;;;;;5057527;28;45403;-81
2023/05/26 05:37:31;;;;;;;;;6.75;3.75;;;;;;;;5057199;28;45538;-82
2023/05/26 05:39:56;;;;;;;;;2.33;2.33;;;;;;;;5057000;28;45582;-81
2023/05/26 05:42:22;;;;;;;;;3.00;3.00;;;;;;;;5057125;28;45445;-82
2023/05/26 05:44:47;;;;;;;;;3.00;3.00;;;;;;;;5057294;28;45273;-82
2023/05/26 05:47:12;;;;;;;;;3.33;3.33;;;;;;;;5056761;28;45383;-83
2023/05/26 05:49:37;;;;;;;;;8.33;3.00;;;;;;;;5038906;28;48379;-82
2023/05/26 05:52:02;;;;;;;;;3.33;2.00;;;;;;;;5057085;28;45277;-81
2023/05/26 05:54:28;;;;;;;;;5.75;3.75;;;;;;;;5057320;28;45423;-81
2023/05/26 05:56:53;;;;;;;;;3.67;3.67;;;;;;;;5057212;28;45309;-81
2023/05/26 05:59:18;;;;;;;;;11.67;4.00;;;;;;;;5056827;28;46693;-81
2023/05/26 06:01:43;;;;;;;;;5.33;3.33;;;;;;;;5056509;28;45358;-81
2023/05/26 06:04:08;;;;;;;;;4.67;4.67;;;;;;;;5057036;28;45331;-82
2023/05/26 06:06:35;;;;;;;;;4.67;2.00;;;;;;;;5055962;28;46648;-81
2023/05/26 06:09:00;;;;;;;;;6.50;2.00;;;;;;;;5056414;28;46341;-83
2023/05/26 06:11:25;;;;;;;;;4.00;4.00;;;;;;;;5056395;28;45463;-82
2023/05/26 06:13:50;;;;;;;;;4.67;4.00;;;;;;;;5056341;28;45488;-82
2023/05/26 06:16:16;;;;;;;;;8.75;4.00;;;;;;;;5056358;28;45500;-83
2023/05/26 06:18:41;;;;;;;;;5.67;3.00;;;;;;;;5056698;28;46042;-84
2023/05/26 06:21:06;;;;;;;;;5.00;3.00;;;;;;;;5056596;28;45474;-83
2023/05/26 06:23:31;;;;;;;;;6.00;4.00;;;;;;;;5056741;28;45530;-84
2023/05/26 06:25:56;;;;;;;;;4.00;3.67;;;;;;;;5056453;28;45409;-83
2023/05/26 06:28:22;;;;;;;;;2.67;2.00;;;;;;;;5055656;28;46511;-83
2023/05/26 06:30:48;;;;;;;;;4.75;3.75;;;;;;;;5055102;28;45566;-82
2023/05/26 06:33:13;;;;;;;;;3.00;3.00;;;;;;;;5056497;28;45277;-82
2023/05/26 06:35:38;;;;;;;;;6.67;3.33;;;;;;;;5038515;28;45460;-82
2023/05/26 06:38:03;;;;;;;;;4.33;2.00;;;;;;;;5056083;28;45602;-83
2023/05/26 06:40:29;;;;;;;;;10.67;3.00;;;;;;;;5055957;28;45251;-82
2023/05/26 06:42:54;;;;;;;;;5.00;3.00;;;;;;;;5055910;28;45331;-82
2023/05/26 06:45:19;;;;;;;;;8.00;2.00;;;;;;;;5056090;28;45447;-82
2023/05/26 06:47:44;;;;;;;;;5.67;3.00;;;;;;;;5055388;28;45354;-82
2023/05/26 06:50:10;;;;;;;;;5.00;5.00;;;;;;;;5055882;28;45289;-82
2023/05/26 06:52:35;;;;;;;;;5.50;3.25;;;;;;;;5037917;28;45745;-82
2023/05/26 06:55:00;;;;;;;;;5.00;2.67;;;;;;;;5056113;28;45435;-83
2023/05/26 06:57:25;;;;;;;;;6.00;3.33;;;;;;;;5053541;28;45573;-81
2023/05/26 06:59:50;;;;;;;;;6.00;3.00;;;;;;;;5053783;28;45416;-82
2023/05/26 07:02:16;;;;;;;;;7.33;4.33;;;;;;;;5041464;28;46106;-86
2023/05/26 07:04:41;;;;;;;;;9.00;3.67;;;;;;;;5053483;28;45420;-82
2023/05/26 07:07:07;;;;;;;;;5.00;3.50;;;;;;;;5052625;28;46086;-82
2023/05/26 07:09:32;;;;;;;;;5.00;2.67;;;;;;;;5030032;28;46178;-85
2023/05/26 07:11:57;;;;;;;;;5.33;4.67;;;;;;;;5049744;28;45408;-82
2023/05/26 07:14:22;;;;;;;;;4.00;3.33;;;;;;;;5049494;28;45607;-83
2023/05/26 07:16:48;;;;;;;;;4.67;2.00;;;;;;;;5052379;28;46518;-85
2023/05/26 07:19:13;;;;;;;;;10.67;5.00;;;;;;;;5044254;28;45698;-83
2023/05/26 07:21:38;;;;;;;;;6.33;4.00;;;;;;;;5055072;28;45465;-83
2023/05/26 07:24:03;;;;;;;;;6.33;3.33;;;;;;;;5049901;28;45582;-83
2023/05/26 07:26:28;;;;;;;;;4.25;3.00;;;;;;;;5038515;28;46411;-83
2023/05/26 07:28:54;;;;;;;;;4.25;4.25;;;;;;;;5031782;28;45713;-82
2023/05/26 07:31:19;;;;;;;;;5.00;4.00;;;;;;;;5045863;28;45358;-82
2023/05/26 07:33:45;;;;;;;;;6.50;3.00;;;;;;;;5048285;28;45569;-82
2023/05/26 07:36:10;;;;;;;;;3.25;2.50;;;;;;;;5048651;28;46461;-84
2023/05/26 07:38:35;;;;;;;;;4.00;4.00;;;;;;;;5054751;28;45864;-82
2023/05/26 07:41:00;;;;;;;;;8.50;5.25;;;;;;;;5051300;28;45479;-82
2023/05/26 07:43:26;;;;;;;;;3.67;3.33;;;;;;;;5023571;28;45506;-83
2023/05/26 07:45:51;;;;;;;;;6.67;3.33;;;;;;;;5048431;28;46150;-82
2023/05/26 07:48:16;;;;;;;;;6.25;4.00;;;;;;;;5042906;28;45897;-83
2023/05/26 07:50:42;;;;;;;;;7.00;3.00;;;;;;;;5044570;28;45701;-83
2023/05/26 07:53:07;;;;;;;;;6.75;3.25;;;;;;;;5056373;28;45396;-83
2023/05/26 07:55:32;;;;;;;;;8.25;4.25;;;;;;;;5057716;28;46160;-84
2023/05/26 07:57:57;;;;;;;;;8.00;5.00;;;;;;;;5038490;28;45511;-82
2023/05/26 08:00:23;;;;;;;;;5.67;4.00;;;;;;;;5045529;28;45466;-82
2023/05/26 08:02:48;;;;;;;;;4.00;4.00;;;;;;;;5051659;28;45639;-83
2023/05/26 08:05:13;;;;;;;;;9.00;6.33;;;;;;;;5055679;28;46477;-83
2023/05/26 08:07:40;;;;;;;;;8.50;3.00;;;;;;;;5047553;28;45491;-83
2023/05/26 08:10:05;;;;;;;;;4.50;4.50;;;;;;;;5026585;28;45551;-83
2023/05/26 08:12:31;;;;;;;;;4.00;3.00;;;;;;;;5045420;28;45360;-84
2023/05/26 08:14:56;;;;;;;;;7.25;4.50;;;;;;;;5057262;28;46143;-82
2023/05/26 08:17:22;;;;;;;;;11.75;3.50;;;;;;;;5048154;28;45475;-82
2023/05/26 08:19:47;;;;;;;;;6.00;3.33;;;;;;;;5046196;28;46524;-82
2023/05/26 08:22:12;;;;;;;;;9.33;4.00;;;;;;;;5038822;28;45594;-83
2023/05/26 08:24:37;;;;;;;;;6.67;5.00;;;;;;;;5057509;28;46351;-82
2023/05/26 08:27:02;;;;;;;;;5.67;4.00;;;;;;;;5057432;28;45519;-82
2023/05/26 08:29:28;;;;;;;;;7.00;4.00;;;;;;;;5055150;28;45598;-83
2023/05/26 08:31:53;;;;;;;;;8.33;2.67;;;;;;;;5054633;28;45536;-81
2023/05/26 08:34:18;;;;;;;;;5.67;3.33;;;;;;;;5052463;28;45557;-83
2023/05/26 08:36:44;;;;;;;;;5.75;4.00;;;;;;;;5041126;28;45513;-81
2023/05/26 08:39:09;;;;;;;;;6.75;3.25;;;;;;;;5056555;28;45456;-81
2023/05/26 08:41:58;;;;;;;;;8.25;3.50;;;;;;;;5051825;28;45490;-81
2023/05/26 08:44:23;;;;;;;;;8.75;3.25;;;;;;;;5031990;28;48130;-80
2023/05/26 08:46:55;;;;;;;;;8.75;5.50;;;;;;;;5056979;28;45510;-81
2023/05/26 08:49:21;;;;;;;;;6.75;4.00;;;;;;;;5056700;28;45332;-81
2023/05/26 08:51:49;;;;;;;;;6.00;3.50;;;;;;;;5056971;28;45655;-82
2023/05/26 08:54:14;;;;;;;;;8.50;4.00;;;;;;;;5053471;28;46150;-82
2023/05/26 08:56:40;;;;;;;;;8.33;4.67;;;;;;;;5056933;28;45398;-81
2023/05/26 08:59:08;;;;;;;;;7.00;3.25;;;;;;;;5057204;28;45329;-80
2023/05/26 09:01:33;;;;;;;;;4.00;3.25;;;;;;;;5053192;28;45421;-80
2023/05/26 09:03:59;;;;;;;;;5.67;4.00;;;;;;;;5053928;28;45468;-82
2023/05/26 09:06:24;;;;;;;;;6.33;4.00;;;;;;;;5043277;28;45436;-82
2023/05/26 09:08:49;;;;;;;;;5.67;4.00;;;;;;;;5047706;28;45515;-81
2023/05/26 09:11:21;;;;;;;;;5.67;4.00;;;;;;;;5055815;28;45740;-82
2023/05/26 09:13:51;;;;;;;;;6.50;4.25;;;;;;;;5056406;28;45667;-81
2023/05/26 09:16:16;;;;;;;;;11.00;4.75;;;;;;;;5056719;28;45430;-82
2023/05/26 09:18:41;;;;;;;;;4.00;3.50;;;;;;;;5049184;28;45419;-81
2023/05/26 09:21:07;;;;;;;;;4.50;3.75;;;;;;;;5056729;28;45337;-85
2023/05/26 09:23:32;;;;;;;;;6.75;3.75;;;;;;;;5030196;28;47085;-85
2023/05/26 09:25:57;;;;;;;;;6.00;3.00;;;;;;;;5054508;28;45479;-84
2023/05/26 09:28:22;;;;;;;;;3.33;2.67;;;;;;;;5051555;28;45416;-84
2023/05/26 09:30:48;;;;;;;;;9.00;3.67;;;;;;;;5056801;28;45561;-83
2023/05/26 09:33:15;;;;;;;;;6.00;5.00;;;;;;;;5056084;28;47006;-83
2023/05/26 09:35:41;;;;;;;;;6.50;3.50;;;;;;;;5056630;28;45255;-84
2023/05/26 09:38:09;;;;;;;;;7.25;4.50;;;;;;;;5055509;28;45505;-82
2023/05/26 09:40:34;;;;;;;;;4.25;4.00;;;;;;;;5042285;28;45559;-83
2023/05/26 09:43:00;;;;;;;;;5.33;4.33;;;;;;;;5043071;28;45526;-84
2023/05/26 09:45:28;;;;;;;;;9.25;5.00;;;;;;;;5055451;28;45711;-83
2023/05/26 09:47:56;;;;;;;;;10.00;6.00;;;;;;;;5056590;28;45370;-83
2023/05/26 09:50:22;;;;;;;;;6.75;4.75;;;;;;;;5056475;28;45475;-83
2023/05/26 09:52:48;;;;;;;;;5.50;4.25;;;;;;;;5045298;28;45510;-83
2023/05/26 09:55:14;;;;;;;;;6.00;3.00;;;;;;;;5056467;28;45922;-84
2023/05/26 09:57:40;;;;;;;;;7.00;4.75;;;;;;;;5049184;28;45802;-83
2023/05/26 10:00:09;;;;;;;;;7.00;3.75;;;;;;;;5054421;28;45511;-83
2023/05/26 10:02:35;;;;;;;;;6.75;4.75;;;;;;;;5049452;28;47040;-85
2023/05/26 10:05:00;;;;;;;;;4.75;4.00;;;;;;;;5054315;28;45249;-85
2023/05/26 10:07:26;;;;;;;;;4.75;4.00;;;;;;;;5055024;28;45389;-86
2023/05/26 10:09:52;;;;;;;;;7.00;3.25;;;;;;;;5047134;28;45487;-85
2023/05/26 10:12:22;;;;;;;;;5.75;3.75;;;;;;;;5044710;28;45625;-84
2023/05/26 10:14:47;;;;;;;;;5.25;3.00;;;;;;;;5055582;28;45420;-85
2023/05/26 10:17:13;;;;;;;;;8.75;5.00;;;;;;;;5054216;28;45462;-84
2023/05/26 10:19:39;;;;;;;;;5.25;3.50;;;;;;;;5050083;28;45518;-85
2023/05/26 10:22:08;;;;;;;;;10.75;6.00;;;;;;;;5047001;28;46064;-84
2023/05/26 10:24:42;;;;;;;;;7.00;5.00;;;;;;;;5050206;28;46129;-84
2023/05/26 10:27:21;;;;;;;;;8.00;4.75;;;;;;;;5055311;28;45428;-84
2023/05/26 10:29:55;;;;;;;;;5.75;4.00;;;;;;;;5047619;28;45472;-85
2023/05/26 10:32:41;;;;;;;;;6.75;4.00;;;;;;;;5049755;28;46446;-85
2023/05/26 10:35:23;;;;;;;;;8.00;4.00;;;;;;;;5049475;28;45796;-83
2023/05/26 10:37:49;;;;;;;;;8.75;6.00;;;;;;;;5037406;28;45464;-83
2023/05/26 10:40:29;;;;;;;;;5.25;4.25;;;;;;;;5052695;28;45560;-85
2023/05/26 10:42:58;;;;;;;;;9.25;4.50;;;;;;;;5055761;28;46171;-86
2023/05/26 10:45:23;;;;;;;;;8.00;4.50;;;;;;;;5058213;28;45463;-85
2023/05/26 10:47:49;;;;;;;;;6.00;4.00;;;;;;;;5047701;28;45832;-84
2023/05/26 10:50:14;;;;;;;;;7.50;4.00;;;;;;;;5039324;28;45510;-85
2023/05/26 10:52:46;;;;;;;;;6.25;5.25;;;;;;;;5050269;28;46264;-83
2023/05/26 10:55:27;;;;;;;;;9.00;5.25;;;;;;;;5055354;28;45800;-82
2023/05/26 10:57:52;;;;;;;;;6.75;3.00;;;;;;;;5042940;28;45437;-83
2023/05/26 11:00:19;;;;;;;;;8.00;6.00;;;;;;;;5050901;28;45476;-83
2023/05/26 11:02:44;;;;;;;;;9.00;5.00;;;;;;;;5047954;28;45407;-84
2023/05/26 11:05:27;;;;;;;;;7.75;4.00;;;;;;;;5052021;28;45301;-83
2023/05/26 11:07:54;;;;;;;;;1.75;1.00;;;;;;;;5041179;28;45390;-83
2023/05/26 11:10:20;;;;;;;;;5.75;4.00;;;;;;;;5051448;28;45278;-83
2023/05/26 11:12:50;;;;;;;;;7.67;5.33;;;;;;;;5054610;28;45795;-83
2023/05/26 11:15:30;;;;;;;;;4.00;3.75;;;;;;;;5052806;28;45888;-83
2023/05/26 11:17:56;;;;;;;;;6.50;5.00;;;;;;;;5046953;28;45479;-82
2023/05/26 11:20:23;;;;;;;;;7.00;6.25;;;;;;;;5054459;28;45457;-83
2023/05/26 11:22:48;;;;;;;;;7.50;5.75;;;;;;;;5046477;28;45348;-84
2023/05/26 11:25:13;;;;;;;;;5.00;4.25;;;;;;;;5047222;28;46097;-81
2023/05/26 11:27:44;;;;;;;;;8.33;3.33;;;;;;;;5052349;28;45578;-81
2023/05/26 11:30:09;;;;;;;;;6.00;5.00;;;;;;;;5050764;28;45383;-81
2023/05/26 11:32:35;;;;;;;;;5.00;4.25;;;;;;;;5054183;28;45445;-81
2023/05/26 11:35:00;;;;;;;;;7.00;6.00;;;;;;;;5056254;28;45479;-80
2023/05/26 11:37:26;;;;;;;;;5.67;3.00;;;;;;;;5049459;28;45415;-82
2023/05/26 11:39:51;;;;;;;;;8.75;5.75;;;;;;;;5050186;28;45439;-84
2023/05/26 11:42:16;;;;;;;;;8.00;4.75;;;;;;;;5054699;28;46545;-88
2023/05/26 11:44:42;;;;;;;;;7.00;4.50;;;;;;;;5044397;28;45218;-85
2023/05/26 11:47:11;;;;;;;;;4.25;4.25;;;;;;;;5055512;28;45466;-86
2023/05/26 11:49:43;;;;;;;;;5.00;4.75;;;;;;;;5054534;28;45441;-85
2023/05/26 11:52:12;;;;;;;;;5.25;3.50;;;;;;;;5022356;28;46137;-87
2023/05/26 11:54:40;;;;;;;;;3.50;3.50;;;;;;;;5049794;28;45509;-86
2023/05/26 11:57:21;;;;;;;;;5.25;4.50;;;;;;;;5050507;28;46033;-88
2023/05/26 11:59:47;;;;;;;;;6.75;5.25;;;;;;;;5054475;28;45543;-84
2023/05/26 12:02:12;;;;;;;;;8.00;5.33;;;;;;;;5055211;28;46997;-88
2023/05/26 12:04:37;;;;;;;;;4.67;3.00;;;;;;;;5046924;28;45427;-84
2023/05/26 12:07:02;;;;;;;;;8.33;6.33;;;;;;;;5054428;28;45514;-86
2023/05/26 12:09:28;;;;;;;;;4.50;3.00;;;;;;;;5051316;28;45540;-87
2023/05/26 12:11:53;;;;;;;;;5.00;4.00;;;;;;;;5032657;28;48241;-87
2023/05/26 12:14:22;;;;;;;;;5.00;5.00;;;;;;;;5047661;28;45536;-86
2023/05/26 12:16:48;;;;;;;;;5.50;3.50;;;;;;;;5043708;28;45777;-85
2023/05/26 12:19:15;;;;;;;;;6.25;4.75;;;;;;;;5051869;28;45501;-85
2023/05/26 12:21:40;;;;;;;;;5.50;5.00;;;;;;;;5052379;28;45449;-83
2023/05/26 12:24:05;;;;;;;;;5.00;3.67;;;;;;;;5048389;28;45522;-85
2023/05/26 12:26:31;;;;;;;;;7.00;4.50;;;;;;;;5034032;28;46506;-84
2023/05/26 12:29:16;;;;;;;;;6.33;4.67;;;;;;;;5044257;28;46437;-84
2023/05/26 12:31:42;;;;;;;;;6.25;5.00;;;;;;;;5033158;28;45558;-81
2023/05/26 12:34:08;;;;;;;;;6.50;3.00;;;;;;;;5053074;28;45533;-81
2023/05/26 12:36:34;;;;;;;;;6.00;4.25;;;;;;;;5052680;28;45525;-81
2023/05/26 12:38:59;;;;;;;;;2.50;2.50;;;;;;;;5051783;28;45321;-81
2023/05/26 12:41:24;;;;;;;;;4.67;4.33;;;;;;;;5050666;28;46192;-81
2023/05/26 12:43:49;;;;;;;;;3.50;3.00;;;;;;;;5051299;28;46601;-81
2023/05/26 12:46:15;;;;;;;;;6.00;3.67;;;;;;;;5053899;28;45443;-81
2023/05/26 12:48:40;;;;;;;;;6.33;3.00;;;;;;;;5050006;28;45301;-82
2023/05/26 12:51:05;;;;;;;;;3.33;3.00;;;;;;;;5048355;28;46715;-80
2023/05/26 12:53:33;;;;;;;;;9.33;4.00;;;;;;;;5051404;28;45499;-81
2023/05/26 12:55:59;;;;;;;;;4.25;3.00;;;;;;;;5049364;28;45972;-80
2023/05/26 12:58:24;;;;;;;;;6.75;4.50;;;;;;;;5052465;28;45820;-78
2023/05/26 13:00:49;;;;;;;;;3.00;2.67;;;;;;;;5051946;28;45554;-79
2023/05/26 13:03:15;;;;;;;;;5.00;3.00;;;;;;;;5052727;28;45663;-80
2023/05/26 13:05:40;;;;;;;;;2.25;1.00;;;;;;;;5045219;28;45558;-80
2023/05/26 13:08:06;;;;;;;;;3.00;1.75;;;;;;;;5049445;28;45704;-80
2023/05/26 13:10:31;;;;;;;;;5.33;2.67;;;;;;;;5053971;28;46369;-79
2023/05/26 13:12:57;;;;;;;;;2.00;2.00;;;;;;;;5049068;28;45448;-80
2023/05/26 13:15:22;;;;;;;;;6.00;3.50;;;;;;;;5051079;28;45434;-80
2023/05/26 13:17:47;;;;;;;;;3.75;2.75;;;;;;;;5051232;28;45534;-81
2023/05/26 13:20:13;;;;;;;;;4.00;2.33;;;;;;;;5052677;28;45791;-81
2023/05/26 13:22:40;;;;;;;;;5.33;3.00;;;;;;;;5049409;28;45581;-81
2023/05/26 13:25:05;;;;;;;;;4.00;1.25;;;;;;;;5050286;28;45603;-81
2023/05/26 13:27:30;;;;;;;;;4.50;1.50;;;;;;;;5049053;28;45791;-81
2023/05/26 13:29:55;;;;;;;;;3.00;2.67;;;;;;;;5047229;28;46664;-83
2023/05/26 13:32:22;;;;;;;;;4.00;3.50;;;;;;;;5046639;28;45531;-83
2023/05/26 13:34:47;;;;;;;;;6.50;3.25;;;;;;;;5046557;28;45794;-83
2023/05/26 13:37:12;;;;;;;;;4.67;3.33;;;;;;;;5052691;28;46331;-82
2023/05/26 13:39:38;;;;;;;;;7.33;2.00;;;;;;;;5048047;28;47289;-80
2023/05/26 13:42:04;;;;;;;;;2.00;1.67;;;;;;;;5053621;28;45548;-82
2023/05/26 13:44:29;;;;;;;;;3.75;2.00;;;;;;;;5052817;28;45544;-82
2023/05/26 13:46:54;;;;;;;;;4.00;2.00;;;;;;;;5053248;28;45502;-84
2023/05/26 13:49:19;;;;;;;;;3.00;1.67;;;;;;;;5052320;28;45632;-82
2023/05/26 13:51:45;;;;;;;;;7.25;4.50;;;;;;;;5051553;28;45539;-83
2023/05/26 13:54:10;;;;;;;;;3.00;2.00;;;;;;;;5050915;28;45518;-83
2023/05/26 13:56:35;;;;;;;;;3.67;2.33;;;;;;;;5048671;28;45469;-81
2023/05/26 13:59:00;;;;;;;;;2.00;1.67;;;;;;;;5052358;28;45432;-79
2023/05/26 14:01:25;;;;;;;;;2.00;2.00;;;;;;;;5054883;27;45864;-79
2023/05/26 14:03:51;;;;;;;;;5.00;2.00;;;;;;;;5033968;28;45948;-82
2023/05/26 14:06:16;;;;;;;;;3.00;3.00;;;;;;;;5051399;28;45690;-81
2023/05/26 14:08:41;;;;;;;;;2.67;2.67;;;;;;;;5050705;28;45706;-80
2023/05/26 14:11:06;;;;;;;;;2.67;2.00;;;;;;;;5052184;28;45576;-81
2023/05/26 14:13:31;;;;;;;;;3.33;1.67;;;;;;;;5049357;28;46127;-81
2023/05/26 14:15:57;;;;;;;;;2.67;1.00;;;;;;;;5048212;28;45566;-80
2023/05/26 14:18:22;;;;;;;;;3.25;1.25;;;;;;;;5051579;28;46950;-81
2023/05/26 14:20:47;;;;;;;;;8.00;2.33;;;;;;;;5052386;28;45427;-82
2023/05/26 14:23:12;;;;;;;;;8.00;2.00;;;;;;;;5048132;28;45546;-82
2023/05/26 14:25:37;;;;;;;;;4.75;1.75;;;;;;;;5048201;28;45636;-82
2023/05/26 14:28:03;;;;;;;;;4.33;2.33;;;;;;;;5051478;28;46503;-80
2023/05/26 14:30:28;;;;;;;;;2.00;2.00;;;;;;;;5049370;28;45685;-82
2023/05/26 14:32:53;;;;;;;;;5.67;2.33;;;;;;;;5051905;28;45576;-81
2023/05/26 14:35:19;;;;;;;;;2.00;1.00;;;;;;;;5050671;28;45552;-83
2023/05/26 14:37:44;;;;;;;;;2.50;1.50;;;;;;;;5050913;28;46487;-82